createdAt,value
2018-04-06T00:01:54.927Z,5.20
2018-04-06T00:04:24.827Z,5.25
2018-04-06T00:06:54.511Z,5.19
2018-04-06T00:09:23.985Z,5.26
2018-04-06T00:11:53.477Z,5.27
2018-04-06T00:14:23.363Z,5.28
2018-04-06T00:16:52.855Z,5.21
2018-04-06T00:19:22.345Z,5.20
2018-04-06T00:21:51.850Z,5.25
2018-04-06T00:24:21.107Z,5.30
2018-04-06T00:26:50.603Z,5.25
2018-04-06T00:29:20.499Z,5.14
2018-04-06T00:31:50.007Z,5.03
2018-04-06T00:34:19.494Z,4.98
2018-04-06T00:36:49.169Z,5.09
2018-04-06T00:39:18.647Z,5.00
2018-04-06T00:41:48.307Z,4.89
2018-04-06T00:44:17.447Z,4.80
2018-04-06T00:46:47.337Z,4.81
2018-04-06T00:49:16.813Z,5.11
2018-04-06T00:51:46.379Z,5.04
2018-04-06T00:54:16.049Z,5.18
2018-04-06T00:56:45.531Z,5.11
2018-04-06T00:59:15.017Z,5.03
2018-04-06T01:01:44.505Z,4.89
2018-04-06T01:04:14.388Z,4.71
2018-04-06T01:06:43.871Z,4.68
2018-04-06T01:09:13.387Z,4.61
2018-04-06T01:11:42.877Z,4.49
2018-04-06T01:14:12.361Z,4.48
2018-04-06T01:16:41.845Z,4.43
2018-04-06T01:19:11.728Z,4.33
2018-04-06T01:21:41.429Z,4.29
2018-04-06T01:24:10.937Z,4.28
2018-04-06T01:26:40.426Z,4.22
2018-04-06T01:29:09.913Z,4.13
2018-04-06T01:31:39.410Z,4.17
2018-04-06T01:34:09.497Z,4.14
2018-04-06T01:36:39.379Z,4.15
2018-04-06T01:39:08.865Z,4.25
2018-04-06T01:41:38.345Z,4.25
2018-04-06T01:44:07.831Z,4.16
2018-04-06T01:46:37.729Z,4.20
2018-04-06T01:49:07.268Z,4.31
2018-04-06T01:51:37.147Z,4.35
2018-04-06T01:54:06.657Z,4.22
2018-04-06T01:56:36.161Z,4.08
2018-04-06T01:59:05.644Z,3.99
2018-04-06T02:01:35.141Z,3.81
2018-04-06T02:04:04.648Z,3.93
2018-04-06T02:06:34.127Z,3.77
2018-04-06T02:09:03.379Z,3.78
2018-04-06T02:11:32.632Z,3.72
2018-04-06T02:14:02.122Z,3.74
2018-04-06T02:16:31.610Z,3.68
2018-04-06T02:19:01.496Z,3.70
2018-04-06T02:21:30.976Z,3.64
2018-04-06T02:24:00.461Z,3.58
2018-04-06T02:26:29.976Z,3.52
2018-04-06T02:28:59.229Z,3.52
2018-04-06T02:31:28.716Z,3.62
2018-04-06T02:33:58.200Z,3.59
2018-04-06T02:36:27.684Z,3.49
2018-04-06T02:38:57.744Z,3.47
2018-04-06T02:41:27.004Z,3.43
2018-04-06T02:43:56.485Z,3.45
2018-04-06T02:46:26.375Z,3.47
2018-04-06T02:48:55.887Z,3.44
2018-04-06T02:51:25.578Z,3.43
2018-04-06T02:53:55.244Z,3.38
2018-04-06T02:56:24.712Z,3.36
2018-04-06T02:58:54.196Z,3.24
2018-04-06T03:01:23.704Z,3.20
2018-04-06T03:03:53.191Z,3.06
2018-04-06T03:06:22.673Z,3.04
2018-04-06T03:08:52.188Z,3.07
2018-04-06T03:11:21.668Z,3.06
2018-04-06T03:13:51.146Z,3.05
2018-04-06T03:16:20.646Z,3.05
2018-04-06T03:18:50.138Z,3.16
2018-04-06T03:21:19.629Z,3.24
2018-04-06T03:23:49.112Z,3.20
2018-04-06T03:26:18.610Z,3.16
2018-04-06T03:28:48.090Z,3.19
2018-04-06T03:31:18.007Z,3.19
2018-04-06T03:33:47.886Z,3.19
2018-04-06T03:36:17.364Z,3.21
2018-04-06T03:38:46.918Z,3.18
2018-04-06T03:41:16.394Z,3.16
2018-04-06T03:43:45.891Z,3.09
2018-04-06T03:46:15.367Z,3.06
2018-04-06T03:48:44.854Z,3.11
2018-04-06T03:51:14.510Z,3.09
2018-04-06T03:53:44.042Z,3.06
2018-04-06T03:56:13.514Z,3.02
2018-04-06T03:58:42.670Z,3.07
2018-04-06T04:01:12.555Z,3.07
2018-04-06T04:03:42.050Z,3.01
2018-04-06T04:06:11.532Z,3.05
2018-04-06T04:08:41.042Z,2.98
2018-04-06T04:11:10.524Z,2.95
2018-04-06T04:13:40.055Z,2.92
2018-04-06T04:16:09.870Z,2.89
2018-04-06T04:18:39.342Z,2.95
2018-04-06T04:21:08.838Z,3.01
2018-04-06T04:23:38.748Z,2.92
2018-04-06T04:26:08.625Z,2.95
2018-04-06T04:28:38.110Z,2.89
2018-04-06T04:31:07.602Z,2.92
2018-04-06T04:33:37.096Z,2.86
2018-04-06T04:36:06.982Z,2.86
2018-04-06T04:38:36.464Z,2.90
2018-04-06T04:41:05.716Z,2.85
2018-04-06T04:43:35.198Z,2.85
2018-04-06T04:46:05.080Z,2.88
2018-04-06T04:48:34.559Z,2.98
2018-04-06T04:51:04.048Z,2.92
2018-04-06T04:53:33.744Z,2.95
2018-04-06T04:56:03.624Z,2.97
2018-04-06T04:58:33.135Z,3.04
2018-04-06T05:01:02.822Z,3.05
2018-04-06T05:03:32.336Z,2.99
2018-04-06T05:06:01.819Z,2.89
2018-04-06T05:08:31.314Z,2.90
2018-04-06T05:11:00.786Z,2.94
2018-04-06T05:13:30.688Z,3.01
2018-04-06T05:16:00.172Z,3.08
2018-04-06T05:18:29.660Z,3.07
2018-04-06T05:20:59.176Z,3.28
2018-04-06T05:23:28.668Z,3.34
2018-04-06T05:25:58.350Z,3.55
2018-04-06T05:28:27.858Z,3.67
2018-04-06T05:30:57.346Z,3.64
2018-04-06T05:33:27.260Z,3.72
2018-04-06T05:35:57.138Z,3.41
2018-04-06T05:38:26.618Z,3.36
2018-04-06T05:40:56.256Z,3.29
2018-04-06T05:43:25.748Z,3.32
2018-04-06T05:45:55.240Z,3.31
2018-04-06T05:48:24.750Z,3.24
2018-04-06T05:50:54.237Z,3.41
2018-04-06T05:53:23.724Z,3.51
2018-04-06T05:55:53.384Z,3.61
2018-04-06T05:58:22.866Z,3.48
2018-04-06T06:00:52.365Z,3.57
2018-04-06T06:03:21.877Z,3.59
2018-04-06T06:05:51.364Z,3.62
2018-04-06T06:08:20.854Z,3.71
2018-04-06T06:10:50.733Z,3.69
2018-04-06T06:13:20.214Z,3.77
2018-04-06T06:15:49.696Z,3.95
2018-04-06T06:18:18.508Z,4.00
2018-04-06T06:20:47.986Z,4.39
2018-04-06T06:23:17.521Z,4.67
2018-04-06T06:25:47.156Z,5.39
2018-04-06T06:28:16.631Z,6.01
2018-04-06T06:30:46.108Z,6.78
2018-04-06T06:33:15.810Z,7.98
2018-04-06T06:35:45.680Z,8.25
2018-04-06T06:38:15.154Z,8.82
2018-04-06T06:40:44.636Z,8.90
2018-04-06T06:43:14.510Z,8.54
2018-04-06T06:45:43.999Z,8.22
2018-04-06T06:48:13.519Z,8.38
2018-04-06T06:50:43.174Z,8.42
2018-04-06T06:53:12.674Z,8.67
2018-04-06T06:55:42.164Z,8.97
2018-04-06T06:58:12.071Z,9.76
2018-04-06T07:00:41.542Z,9.27
2018-04-06T07:03:11.016Z,9.67
2018-04-06T07:05:40.506Z,9.52
2018-04-06T07:08:10.390Z,10.17
2018-04-06T07:10:39.915Z,9.58
2018-04-06T07:13:09.420Z,10.21
2018-04-06T07:15:38.671Z,10.59
2018-04-06T07:18:08.159Z,10.13
2018-04-06T07:20:37.656Z,11.33
2018-04-06T07:23:06.900Z,12.24
2018-04-06T07:25:36.408Z,12.41
2018-04-06T07:28:05.892Z,12.34
2018-04-06T07:30:35.386Z,12.15
2018-04-06T07:33:04.882Z,12.14
2018-04-06T07:35:34.946Z,11.92
2018-04-06T07:38:04.444Z,11.24
2018-04-06T07:40:33.930Z,11.89
2018-04-06T07:43:03.423Z,11.48
2018-04-06T07:45:32.911Z,11.22
2018-04-06T07:48:02.776Z,9.95
2018-04-06T07:50:32.282Z,10.15
2018-04-06T07:53:01.766Z,10.10
2018-04-06T07:55:31.430Z,11.06
2018-04-06T07:58:01.351Z,11.04
2018-04-06T08:00:31.226Z,10.89
2018-04-06T08:03:00.712Z,11.10
2018-04-06T08:05:30.209Z,10.78
2018-04-06T08:07:59.470Z,10.33
2018-04-06T08:10:29.391Z,10.25
2018-04-06T08:12:59.047Z,10.87
2018-04-06T08:15:28.525Z,10.58
2018-04-06T08:17:58.011Z,11.23
2018-04-06T08:20:27.904Z,10.72
2018-04-06T08:22:57.386Z,11.10
2018-04-06T08:25:26.892Z,10.42
2018-04-06T08:27:56.400Z,11.16
2018-04-06T08:30:25.895Z,11.31
2018-04-06T08:32:55.382Z,10.12
2018-04-06T08:35:25.097Z,10.38
2018-04-06T08:37:54.596Z,10.08
2018-04-06T08:40:24.078Z,9.86
2018-04-06T08:42:53.566Z,10.00
2018-04-06T08:45:23.449Z,9.55
2018-04-06T08:47:52.948Z,9.36
2018-04-06T08:50:22.461Z,9.48
2018-04-06T08:52:51.948Z,9.36
2018-04-06T08:55:21.439Z,9.07
2018-04-06T08:57:50.956Z,9.04
2018-04-06T09:00:20.435Z,8.90
2018-04-06T09:02:49.927Z,9.08
2018-04-06T09:05:19.835Z,9.15
2018-04-06T09:07:49.745Z,9.50
2018-04-06T09:10:19.661Z,9.69
2018-04-06T09:12:49.335Z,9.76
2018-04-06T09:15:18.826Z,9.82
2018-04-06T09:17:48.329Z,10.02
2018-04-06T09:20:17.827Z,9.88
2018-04-06T09:22:47.108Z,10.29
2018-04-06T09:25:16.989Z,10.37
2018-04-06T09:27:46.473Z,10.31
2018-04-06T09:30:15.978Z,10.27
2018-04-06T09:32:45.491Z,10.46
2018-04-06T09:35:14.981Z,10.50
2018-04-06T09:37:44.479Z,10.46
2018-04-06T09:40:13.977Z,10.56
2018-04-06T09:42:43.472Z,10.21
2018-04-06T09:45:12.978Z,10.58
2018-04-06T09:47:42.663Z,10.56
2018-04-06T09:50:12.544Z,10.85
2018-04-06T09:52:42.051Z,10.98
2018-04-06T09:55:11.541Z,11.20
2018-04-06T09:57:41.232Z,11.43
2018-04-06T10:00:10.482Z,11.52
2018-04-06T10:02:40.950Z,11.12
2018-04-06T10:05:10.476Z,11.45
2018-04-06T10:07:39.977Z,11.63
2018-04-06T10:10:09.475Z,11.57
2018-04-06T10:12:38.968Z,11.21
2018-04-06T10:15:08.253Z,11.34
2018-04-06T10:17:38.148Z,11.65
2018-04-06T10:20:07.653Z,11.61
2018-04-06T10:22:37.153Z,11.56
2018-04-06T10:25:06.640Z,12.14
2018-04-06T10:27:36.132Z,12.00
2018-04-06T10:30:05.339Z,11.86
2018-04-06T10:32:34.817Z,12.06
2018-04-06T10:35:04.344Z,12.08
2018-04-06T10:37:34.032Z,11.81
2018-04-06T10:40:03.539Z,12.21
2018-04-06T10:42:33.039Z,12.39
2018-04-06T10:45:02.289Z,12.51
2018-04-06T10:47:31.791Z,12.34
2018-04-06T10:50:01.296Z,12.43
2018-04-06T10:52:30.788Z,12.48
2018-04-06T10:55:00.275Z,12.57
2018-04-06T10:57:29.773Z,12.77
2018-04-06T10:59:59.263Z,12.83
2018-04-06T11:02:28.759Z,12.89
2018-04-06T11:04:58.657Z,13.25
2018-04-06T11:07:28.542Z,13.19
2018-04-06T11:09:57.807Z,13.27
2018-04-06T11:12:27.303Z,13.39
2018-04-06T11:14:56.796Z,13.32
2018-04-06T11:17:26.685Z,13.11
2018-04-06T11:19:56.207Z,13.23
2018-04-06T11:22:26.107Z,13.04
2018-04-06T11:24:55.596Z,12.95
2018-04-06T11:27:25.083Z,13.06
2018-04-06T11:29:54.577Z,13.37
2018-04-06T11:32:24.078Z,13.51
2018-04-06T11:34:53.567Z,13.67
2018-04-06T11:37:23.049Z,13.59
2018-04-06T11:39:54.271Z,13.44
2018-04-06T11:42:23.757Z,13.20
2018-04-06T11:44:53.252Z,13.43
2018-04-06T11:47:22.747Z,13.68
2018-04-06T11:49:52.003Z,13.65
2018-04-06T11:52:22.097Z,13.55
2018-04-06T11:54:51.594Z,13.51
2018-04-06T11:57:21.087Z,13.65
2018-04-06T11:59:50.606Z,13.59
2018-04-06T12:02:20.043Z,13.77
2018-04-06T12:04:49.710Z,13.62
2018-04-06T12:07:18.995Z,13.94
2018-04-06T12:09:48.261Z,14.29
2018-04-06T12:12:18.153Z,14.28
2018-04-06T12:14:47.677Z,14.10
2018-04-06T12:17:17.559Z,13.84
2018-04-06T12:19:47.055Z,14.10
2018-04-06T12:22:16.537Z,14.18
2018-04-06T12:24:46.028Z,14.17
2018-04-06T12:27:15.537Z,14.08
2018-04-06T12:29:45.033Z,14.19
2018-04-06T12:32:14.930Z,14.41
2018-04-06T12:34:44.825Z,14.40
2018-04-06T12:37:14.081Z,14.66
2018-04-06T12:39:43.573Z,14.66
2018-04-06T12:42:13.097Z,14.45
2018-04-06T12:44:42.591Z,14.64
2018-04-06T12:47:12.291Z,14.69
2018-04-06T12:49:41.775Z,14.88
2018-04-06T12:52:11.283Z,14.80
2018-04-06T12:54:40.779Z,14.73
2018-04-06T12:57:10.275Z,14.83
2018-04-06T12:59:39.767Z,14.90
2018-04-06T13:02:09.269Z,14.85
2018-04-06T13:04:38.803Z,14.79
2018-04-06T13:07:08.297Z,15.02
2018-04-06T13:09:37.783Z,15.12
2018-04-06T13:12:07.287Z,15.27
2018-04-06T13:14:36.789Z,15.31
2018-04-06T13:17:06.287Z,15.60
2018-04-06T13:19:35.782Z,15.42
2018-04-06T13:22:05.283Z,15.30
2018-04-06T13:24:34.778Z,15.29
2018-04-06T13:27:04.301Z,15.34
2018-04-06T13:29:33.801Z,15.25
2018-04-06T13:32:03.290Z,15.59
2018-04-06T13:34:33.181Z,15.45
2018-04-06T13:37:02.678Z,15.44
2018-04-06T13:39:32.166Z,15.50
2018-04-06T13:42:01.688Z,15.66
2018-04-06T13:44:31.182Z,15.77
2018-04-06T13:47:00.685Z,15.75
2018-04-06T13:49:29.967Z,15.53
2018-04-06T13:51:59.483Z,15.67
2018-04-06T13:54:28.986Z,15.70
2018-04-06T13:56:58.484Z,15.88
2018-04-06T13:59:27.742Z,15.80
2018-04-06T14:01:57.636Z,15.62
2018-04-06T14:04:26.900Z,15.60
2018-04-06T14:06:56.401Z,15.92
2018-04-06T14:09:25.974Z,16.01
2018-04-06T14:11:55.622Z,15.97
2018-04-06T14:14:25.117Z,16.06
2018-04-06T14:16:54.403Z,16.20
2018-04-06T14:19:24.092Z,16.19
2018-04-06T14:21:53.986Z,16.18
2018-04-06T14:24:23.487Z,16.06
2018-04-06T14:26:52.994Z,16.12
2018-04-06T14:29:22.487Z,16.27
2018-04-06T14:31:51.984Z,16.38
2018-04-06T14:34:21.494Z,16.48
2018-04-06T14:36:50.990Z,16.44
2018-04-06T14:39:20.489Z,16.31
2018-04-06T14:41:50.020Z,16.23
2018-04-06T14:44:19.510Z,16.29
2018-04-06T14:46:49.000Z,16.36
2018-04-06T14:49:18.506Z,16.39
2018-04-06T14:51:48.018Z,16.45
2018-04-06T14:54:17.544Z,16.49
2018-04-06T14:56:47.313Z,16.54
2018-04-06T14:59:16.826Z,16.48
2018-04-06T15:01:46.334Z,16.51
2018-04-06T15:04:15.820Z,16.41
2018-04-06T15:06:45.336Z,16.72
2018-04-06T15:09:14.833Z,16.73
2018-04-06T15:11:44.324Z,16.78
2018-04-06T15:14:14.213Z,16.74
2018-04-06T15:16:43.938Z,16.70
2018-04-06T15:19:13.428Z,16.74
2018-04-06T15:21:42.920Z,16.74
2018-04-06T15:24:12.417Z,16.70
2018-04-06T15:26:41.910Z,16.71
2018-04-06T15:29:11.418Z,16.67
2018-04-06T15:31:40.682Z,16.57
2018-04-06T15:34:10.777Z,16.64
2018-04-06T15:36:40.256Z,16.53
2018-04-06T15:39:09.814Z,16.48
2018-04-06T15:41:39.739Z,16.43
2018-04-06T15:44:09.080Z,16.45
2018-04-06T15:46:38.568Z,16.43
2018-04-06T15:49:08.054Z,16.48
2018-04-06T15:51:37.550Z,16.58
2018-04-06T15:54:07.438Z,16.55
2018-04-06T15:56:36.936Z,16.53
2018-04-06T15:59:06.433Z,16.45
2018-04-06T16:01:35.688Z,16.46
2018-04-06T16:04:05.230Z,16.44
2018-04-06T16:06:34.714Z,16.37
2018-04-06T16:09:03.420Z,16.35
2018-04-06T16:11:32.704Z,16.27
2018-04-06T16:14:01.953Z,16.32
2018-04-06T16:16:31.834Z,16.34
2018-04-06T16:19:01.102Z,16.24
2018-04-06T16:21:30.594Z,16.33
2018-04-06T16:24:00.247Z,16.42
2018-04-06T16:26:29.772Z,16.40
2018-04-06T16:28:59.264Z,16.29
2018-04-06T16:31:28.758Z,16.26
2018-04-06T16:33:58.253Z,16.24
2018-04-06T16:36:27.748Z,16.22
2018-04-06T16:38:57.240Z,16.29
2018-04-06T16:41:26.754Z,16.24
2018-04-06T16:43:56.252Z,16.21
2018-04-06T16:46:25.746Z,16.19
2018-04-06T16:48:55.628Z,16.09
2018-04-06T16:51:25.140Z,16.08
2018-04-06T16:53:54.634Z,15.96
2018-04-06T16:56:24.152Z,15.97
2018-04-06T16:58:53.655Z,16.05
2018-04-06T17:01:23.337Z,16.08
2018-04-06T17:03:52.833Z,16.13
2018-04-06T17:06:22.319Z,16.10
2018-04-06T17:08:51.819Z,16.03
2018-04-06T17:11:21.304Z,15.97
2018-04-06T17:13:51.185Z,15.94
2018-04-06T17:16:20.682Z,15.91
2018-04-06T17:18:49.966Z,15.89
2018-04-06T17:21:19.454Z,15.84
2018-04-06T17:23:48.950Z,15.70
2018-04-06T17:26:18.828Z,15.64
2018-04-06T17:28:48.329Z,15.65
2018-04-06T17:31:17.816Z,15.63
2018-04-06T17:33:47.373Z,15.60
2018-04-06T17:36:17.270Z,15.49
2018-04-06T17:38:46.765Z,15.39
2018-04-06T17:41:16.280Z,15.37
2018-04-06T17:43:45.768Z,15.34
2018-04-06T17:46:15.269Z,15.26
2018-04-06T17:48:44.786Z,15.27
2018-04-06T17:51:14.274Z,15.16
2018-04-06T17:53:43.767Z,15.13
2018-04-06T17:56:13.282Z,14.99
2018-04-06T17:58:42.790Z,14.87
2018-04-06T18:01:12.282Z,14.84
2018-04-06T18:03:41.916Z,14.81
2018-04-06T18:06:11.410Z,14.59
2018-04-06T18:08:40.890Z,14.44
2018-04-06T18:11:10.381Z,14.33
2018-04-06T18:13:40.745Z,14.23
2018-04-06T18:16:10.078Z,14.22
2018-04-06T18:18:39.342Z,14.09
2018-04-06T18:21:08.850Z,14.00
2018-04-06T18:23:38.383Z,13.89
2018-04-06T18:26:07.877Z,13.87
2018-04-06T18:28:37.600Z,13.79
2018-04-06T18:31:06.887Z,13.74
2018-04-06T18:33:36.386Z,13.62
2018-04-06T18:36:05.887Z,13.51
2018-04-06T18:38:35.578Z,13.45
2018-04-06T18:41:05.068Z,13.33
2018-04-06T18:43:34.591Z,13.22
2018-04-06T18:46:04.125Z,13.19
2018-04-06T18:48:33.799Z,13.18
2018-04-06T18:51:03.302Z,13.08
2018-04-06T18:53:32.816Z,13.04
2018-04-06T18:56:02.320Z,13.02
2018-04-06T18:58:31.833Z,12.94
2018-04-06T19:01:01.510Z,12.79
2018-04-06T19:03:31.401Z,12.72
2018-04-06T19:06:00.886Z,12.61
2018-04-06T19:08:30.386Z,12.62
2018-04-06T19:10:59.887Z,12.58
2018-04-06T19:13:29.394Z,12.59
2018-04-06T19:15:58.929Z,12.49
2018-04-06T19:18:28.429Z,12.42
2018-04-06T19:20:57.920Z,12.41
2018-04-06T19:23:27.447Z,12.47
2018-04-06T19:25:57.336Z,12.37
2018-04-06T19:28:26.825Z,12.33
2018-04-06T19:30:56.321Z,12.22
2018-04-06T19:33:25.807Z,12.16
2018-04-06T19:35:55.307Z,12.12
2018-04-06T19:42:30.491Z,11.99
2018-04-06T19:45:00.188Z,12.00
2018-04-06T19:47:29.697Z,11.95
2018-04-06T19:49:58.954Z,11.93
2018-04-06T19:52:28.489Z,11.93
2018-04-06T19:54:58.379Z,12.10
2018-04-06T19:57:27.882Z,12.12
2018-04-06T19:59:57.390Z,11.94
2018-04-06T20:02:26.894Z,12.03
2018-04-06T20:04:56.403Z,12.06
2018-04-06T20:07:25.924Z,12.01
2018-04-06T20:09:55.813Z,11.94
2018-04-06T20:12:25.318Z,11.73
2018-04-06T20:14:54.810Z,11.59
2018-04-06T20:17:24.309Z,11.54
2018-04-06T20:19:53.807Z,11.48
2018-04-06T20:22:23.319Z,11.40
2018-04-06T20:24:52.825Z,11.37
2018-04-06T20:27:22.317Z,11.44
2018-04-06T20:29:51.806Z,11.42
2018-04-06T20:32:21.308Z,11.55
2018-04-06T20:34:50.805Z,11.40
2018-04-06T20:37:20.069Z,11.29
2018-04-06T20:39:49.571Z,11.21
2018-04-06T20:42:19.093Z,11.09
2018-04-06T20:44:48.595Z,11.00
2018-04-06T20:47:18.093Z,10.96
2018-04-06T20:49:47.621Z,10.96
2018-04-06T20:52:17.516Z,10.92
2018-04-06T20:54:47.225Z,10.86
2018-04-06T20:57:16.720Z,10.79
2018-04-06T20:59:46.218Z,10.74
2018-04-06T21:02:15.746Z,10.76
2018-04-06T21:04:45.276Z,10.73
2018-04-06T21:07:15.177Z,10.73
2018-04-06T21:09:45.070Z,10.73
2018-04-06T21:12:14.557Z,10.75
2018-04-06T21:14:44.086Z,10.90
2018-04-06T21:17:13.573Z,10.84
2018-04-06T21:19:43.066Z,10.80
2018-04-06T21:22:12.327Z,10.77
2018-04-06T21:24:42.231Z,10.70
2018-04-06T21:27:12.123Z,10.77
2018-04-06T21:29:41.382Z,10.73
2018-04-06T21:32:10.650Z,10.85
2018-04-06T21:34:40.546Z,10.76
2018-04-06T21:37:10.043Z,10.77
2018-04-06T21:39:39.550Z,10.68
2018-04-06T21:42:09.087Z,10.56
2018-04-06T21:44:38.533Z,10.52
2018-04-06T21:47:07.779Z,10.46
2018-04-06T21:49:37.707Z,10.49
2018-04-06T21:52:07.599Z,10.35
2018-04-06T21:54:37.083Z,10.24
2018-04-06T21:57:06.344Z,10.18
2018-04-06T21:59:35.620Z,10.04
2018-04-06T22:02:04.979Z,9.87
2018-04-06T22:04:34.466Z,9.75
2018-04-06T22:07:04.099Z,9.62
2018-04-06T22:09:33.361Z,9.50
2018-04-06T22:12:02.852Z,9.42
2018-04-06T22:14:32.742Z,9.36
2018-04-06T22:17:02.253Z,9.38
2018-04-06T22:19:31.736Z,9.47
2018-04-06T22:22:01.231Z,9.45
2018-04-06T22:24:30.745Z,9.44
2018-04-06T22:27:00.247Z,9.49
2018-04-06T22:29:29.739Z,9.44
2018-04-06T22:31:59.259Z,9.33
2018-04-06T22:34:28.767Z,9.29
2018-04-06T22:36:58.274Z,9.21
2018-04-06T22:39:27.794Z,9.17
2018-04-06T22:41:57.285Z,9.11
2018-04-06T22:44:26.797Z,9.10
2018-04-06T22:46:56.535Z,9.27
2018-04-06T22:49:26.457Z,9.12
2018-04-06T22:51:56.394Z,9.03
2018-04-06T22:54:25.921Z,9.05
2018-04-06T22:56:55.423Z,8.97
2018-04-06T22:59:24.937Z,8.97
2018-04-06T23:01:54.455Z,8.92
2018-04-06T23:04:23.975Z,8.83
2018-04-06T23:06:53.497Z,8.77
2018-04-06T23:09:23.393Z,8.69
2018-04-06T23:11:52.919Z,8.75
2018-04-06T23:14:22.835Z,8.73
2018-04-06T23:16:52.765Z,8.67
2018-04-06T23:19:22.700Z,8.61
2018-04-06T23:21:52.221Z,8.56
2018-04-06T23:24:21.751Z,8.57
2018-04-06T23:26:51.271Z,8.61
2018-04-06T23:29:20.762Z,8.55
2018-04-06T23:31:50.035Z,8.50
2018-04-06T23:34:19.531Z,8.54
2018-04-06T23:36:49.023Z,8.44
2018-04-06T23:39:18.511Z,8.39
2018-04-06T23:41:48.443Z,8.41
2018-04-06T23:44:17.935Z,8.48
2018-04-06T23:46:47.840Z,8.43
2018-04-06T23:49:17.730Z,8.30
2018-04-06T23:51:47.227Z,8.41
2018-04-06T23:54:16.714Z,8.28
2018-04-06T23:56:46.231Z,8.15
2018-04-06T23:59:15.730Z,8.06
